Detall de PIREP

Printer-friendly versionPDF version

[2012/08/09 19:29:00]
Flight IATA:CT1005
Pilot Number:037
Company ICAO:CAT
Aircraft Type:B752/E
PAX:158
Aircraft Registration:PAX
Departing Airport: EKCH
Destination Airport: LZIB
Alternate Airport:LHBP
Online: VATSIM
Route:SIMEG M736 SALLO UM44 KOGIM UM725 HDO UM748 BERVA
Flight Level:F370
No Slew and time accel
No pause
Crash detect
Detect pilot in Cockpit between each 30 and 45 minutes
19:29 Zero fuel Weight: 171287 Lbs, Fuel Weight: 22469 Lbs
19:29 VATSIM:EKCH 091850Z 31008KT 270V330 CAVOK 18/10 Q1021 NOSIG
19:29 VATSIM:LZIB 091900Z 34005KT CAVOK 21/09 Q1021
19:33 Parking Brakes off
19:56 Take-off
19:56 Take off Weight: 192355 Lbs
19:56 Wind: 300º @ 009 Knots Heading: 222º
19:56 POS N55º 36´ 09´´ E012º 37´ 11´´
19:56 Flaps:2 at 187 Knots
19:56 Gear Up: 191 Knots
19:56 Flaps:1 at 195 Knots
19:56 Flaps:0 at 225 Knots
20:15 TOC
20:15 Fuel Weight: 16790 Lb
20:51 TOD
20:51 Fuel Weight: 11293 Lb
21:07 Flaps:1 at 205 Knots
21:08 Flaps:2 at 181 Knots
21:09 Flaps:3 at 177 Knots
21:11 Wind:346º@005 Knots Heading: 299º Ground Speed: 168 Knots Altitude 2467 ft
21:11 Gear Down: 155 Knots
21:11 Flaps:4 at 152 Knots
21:13 Flaps:5 at 140 Knots
21:15 TouchDown:Rate -226 ft/min Speed: 128 Knots
21:15 VATSIM:LZIB 092100Z 36006KT CAVOK 18/09 Q1022
21:15 Land
21:15 Wind:357º@006 Knots
21:15 Heading: 314º
21:15 Flight Duration: 01:19
21:15 Landing Weight: 180550 Lbs
21:15 POS N48º 09´ 59´´ E017º 13´ 05´´
21:18 Parking brakes on
21:18 Block to Block Duration: 01:45
21:18 Final Fuel: 8930 Lbls
21:18 Spent Fuel: 13538 Lbls
21:18 Flight Length: 92 NM
21:18 TOD Land Length: 15 NM

Exportar CSV

Powered by Drupal - Modified by Danger4k